Capitol Logistics 410


KRFD
Chicago/Rockford International Airport
Rockford, Illinois, US
KMSP
Minneapolis-St Paul International Airport
Minneapolis, Minnesota, US

Activity Log

Date Flight Route Aircraft Duration
08/31/2020 CPX410 RFD DBQ MNOSO BLUEM3 B738 1h 09m
01/15/2020 CPX410 RFD DBQ MNOSO BLUEM3 B738 1h 20m
11/29/2019 CPX410 RFD DBQ MNOSO BLUEM3 B738 1h 13m
11/18/2019 CPX410 N0319A110 RFD V128 JVL/N0452F380 DLL EAU EAU9 B738 1h 09m
11/14/2019 CPX410 N0306A110 RFD V128 JVL/N0448F400 DLL EAU EAU9 B738 1h 07m
11/11/2019 CPX410 N0343A110 RFD V128 JVL/N0455F360 DLL EAU EAU9 B738 1h 09m
10/28/2019 CPX410 RFD DBQ MNOSO BLUEM3 B738 1h 03m
08/02/2019 CPX410 KRFD RFD DBQ MNOSO BLUEM3 KMSP B738 1h 26m
07/19/2019 CPX410 RFD DBQ MNOSO BLUEM3 B738 1h 08m
06/25/2019 CPX410 RFD DBQ MNOSO BLUEM3 B738 1h 12m
03/09/2019 CPX410 RFD DBQ MNOSO BLUEM3 B752 0h 50m
02/20/2019 CPX410 RFD DBQ MNOSO BLUEM3 B752 1h 14m

Route Details

Aircraft Information
Primary: Boeing 737-800BCF
Backup: Not Available
Route Data
Distance: 278nm
Sched. Duration: 0h 45m
Avg. Duration: 1h 06m (+62m)
Times Flown: 12
Recm'd Route: RFD DBQ MNOSO BLUEM3
Planned Altitude: 28,000ft
Origin Wx: KRFD 231554Z 19003KT 10SM BKN250 M10/M17 A3040 RMK AO2 SLP310 T11001172
Dest. Wx: KMSP 231553Z 16006KT 10SM OVC029 M09/M13 A3026 RMK AO2 SLP265 T10891128
Notes:

Financial History
Total Freight: 435,367lbs
Average Load: 36,281lbs/flt
Fuel Used: 84,258lbs
Avg. Fuel Used: 7,022lbs/flt
Fuel Expense: $60,849
Avg. Fuel Expense: $5,071
Avg. Fuel Cost: $0.72/lbs
Total Gross Income: $566,585
Pilot Pay: $2,188
Total Expenses: $61,815
Total Revenue: $441,275
Average Revenue: $47,215.45